Pence, Wisconsin
Current Conditions -  °F | °C
As of 2:15 AM on Thursday 27 Nov 2014 (Local Time) from KIWD Reporting Station
Overcast Overcast  
Wind Chill:   Ceiling: 1500
Heat Index: 12°   Visibility: 2.5mi
Dew Point:   Wind: 8mph
Humidity: 85%   Direction: 320°NW
Pressure: 30.28"   Gusts: NA
Location:  46.3634°N, 90.2665°W
Report Text: KIWD 270815Z AUTO 32007KT 2 1/2SM FEW009 OVC015 M11/M13 A3028 RMK AO1
Loading
Personal Weather Stations






























Interactive Weather Map New forecast layout! Learn more

10-Day Weather Forecast

Advertisements
Track Severe Weather on mobile